sensor_id;sensor_type;location;lat;lon;timestamp;P1;durP1;ratioP1;P2;durP2;ratioP2
18929;SDS011;43305;52.186;5.598;2024-01-16T00:01:41;15.48;;;1.98;;
18929;SDS011;43305;52.186;5.598;2024-01-16T00:04:08;11.90;;;1.80;;
18929;SDS011;43305;52.186;5.598;2024-01-16T00:06:38;7.70;;;1.60;;
18929;SDS011;43305;52.186;5.598;2024-01-16T00:09:05;8.25;;;1.90;;
18929;SDS011;43305;52.186;5.598;2024-01-16T00:11:32;12.57;;;1.85;;
18929;SDS011;43305;52.186;5.598;2024-01-16T00:13:59;12.02;;;1.45;;
18929;SDS011;43305;52.186;5.598;2024-01-16T00:16:26;9.95;;;1.60;;
18929;SDS011;43305;52.186;5.598;2024-01-16T00:18:54;13.40;;;1.92;;
18929;SDS011;43305;52.186;5.598;2024-01-16T00:21:21;13.98;;;1.80;;
18929;SDS011;43305;52.186;5.598;2024-01-16T00:23:48;10.00;;;1.40;;
18929;SDS011;43305;52.186;5.598;2024-01-16T00:26:21;8.43;;;1.60;;
18929;SDS011;43305;52.186;5.598;2024-01-16T00:28:48;12.25;;;2.10;;
18929;SDS011;43305;52.186;5.598;2024-01-16T00:31:15;12.23;;;1.90;;
18929;SDS011;43305;52.186;5.598;2024-01-16T00:33:42;9.63;;;2.13;;
18929;SDS011;43305;52.186;5.598;2024-01-16T00:36:11;11.25;;;2.00;;
18929;SDS011;43305;52.186;5.598;2024-01-16T00:38:37;14.50;;;2.28;;
18929;SDS011;43305;52.186;5.598;2024-01-16T00:41:04;21.30;;;2.17;;
18929;SDS011;43305;52.186;5.598;2024-01-16T00:43:31;15.55;;;2.28;;
18929;SDS011;43305;52.186;5.598;2024-01-16T00:46:01;15.70;;;2.05;;
18929;SDS011;43305;52.186;5.598;2024-01-16T00:48:28;12.65;;;1.83;;
18929;SDS011;43305;52.186;5.598;2024-01-16T00:50:55;10.45;;;1.80;;
18929;SDS011;43305;52.186;5.598;2024-01-16T00:53:23;11.05;;;1.70;;
18929;SDS011;43305;52.186;5.598;2024-01-16T00:55:50;12.85;;;1.90;;
18929;SDS011;43305;52.186;5.598;2024-01-16T00:58:17;10.52;;;1.50;;
18929;SDS011;43305;52.186;5.598;2024-01-16T01:00:44;13.82;;;1.50;;
18929;SDS011;43305;52.186;5.598;2024-01-16T01:03:11;12.48;;;1.77;;
18929;SDS011;43305;52.186;5.598;2024-01-16T01:05:38;13.57;;;1.63;;
18929;SDS011;43305;52.186;5.598;2024-01-16T01:08:05;6.85;;;1.33;;
18929;SDS011;43305;52.186;5.598;2024-01-16T01:10:36;14.20;;;1.88;;
18929;SDS011;43305;52.186;5.598;2024-01-16T01:13:03;13.27;;;1.92;;
18929;SDS011;43305;52.186;5.598;2024-01-16T01:15:30;8.93;;;1.73;;
18929;SDS011;43305;52.186;5.598;2024-01-16T01:18:00;9.60;;;1.48;;
18929;SDS011;43305;52.186;5.598;2024-01-16T01:20:27;8.30;;;1.40;;
18929;SDS011;43305;52.186;5.598;2024-01-16T01:22:53;11.63;;;1.52;;
18929;SDS011;43305;52.186;5.598;2024-01-16T01:25:20;7.47;;;1.17;;
18929;SDS011;43305;52.186;5.598;2024-01-16T01:27:48;10.32;;;1.50;;
18929;SDS011;43305;52.186;5.598;2024-01-16T01:30:15;9.57;;;1.60;;
18929;SDS011;43305;52.186;5.598;2024-01-16T01:32:42;3.88;;;1.50;;
18929;SDS011;43305;52.186;5.598;2024-01-16T01:35:09;7.97;;;1.33;;
18929;SDS011;43305;52.186;5.598;2024-01-16T01:37:36;9.23;;;1.60;;
18929;SDS011;43305;52.186;5.598;2024-01-16T01:40:03;8.95;;;1.45;;
18929;SDS011;43305;52.186;5.598;2024-01-16T01:42:31;7.90;;;1.38;;
18929;SDS011;43305;52.186;5.598;2024-01-16T01:44:59;9.68;;;1.70;;
18929;SDS011;43305;52.186;5.598;2024-01-16T01:47:26;7.95;;;1.83;;
18929;SDS011;43305;52.186;5.598;2024-01-16T01:49:53;10.95;;;1.50;;
18929;SDS011;43305;52.186;5.598;2024-01-16T01:52:21;8.52;;;1.38;;
18929;SDS011;43305;52.186;5.598;2024-01-16T01:54:48;10.70;;;1.50;;
18929;SDS011;43305;52.186;5.598;2024-01-16T01:57:17;19.17;;;1.55;;
18929;SDS011;43305;52.186;5.598;2024-01-16T01:59:44;10.55;;;1.60;;
18929;SDS011;43305;52.186;5.598;2024-01-16T02:02:12;7.20;;;1.25;;
18929;SDS011;43305;52.186;5.598;2024-01-16T02:04:39;6.75;;;1.50;;
18929;SDS011;43305;52.186;5.598;2024-01-16T02:07:07;12.60;;;1.70;;
18929;SDS011;43305;52.186;5.598;2024-01-16T02:09:34;9.95;;;1.50;;
18929;SDS011;43305;52.186;5.598;2024-01-16T02:12:06;11.38;;;1.75;;
18929;SDS011;43305;52.186;5.598;2024-01-16T02:14:33;10.35;;;1.50;;
18929;SDS011;43305;52.186;5.598;2024-01-16T02:17:00;11.88;;;1.70;;
18929;SDS011;43305;52.186;5.598;2024-01-16T02:19:29;8.93;;;1.27;;
18929;SDS011;43305;52.186;5.598;2024-01-16T02:21:57;14.95;;;1.50;;
18929;SDS011;43305;52.186;5.598;2024-01-16T02:24:27;9.20;;;1.65;;
18929;SDS011;43305;52.186;5.598;2024-01-16T02:26:54;9.93;;;1.40;;
18929;SDS011;43305;52.186;5.598;2024-01-16T02:29:22;8.68;;;1.10;;
18929;SDS011;43305;52.186;5.598;2024-01-16T02:31:49;6.60;;;0.93;;
18929;SDS011;43305;52.186;5.598;2024-01-16T02:34:16;9.82;;;1.00;;
18929;SDS011;43305;52.186;5.598;2024-01-16T02:36:43;9.52;;;1.10;;
18929;SDS011;43305;52.186;5.598;2024-01-16T02:39:10;4.60;;;0.85;;
18929;SDS011;43305;52.186;5.598;2024-01-16T02:41:38;5.25;;;0.80;;
18929;SDS011;43305;52.186;5.598;2024-01-16T02:44:05;8.43;;;1.05;;
18929;SDS011;43305;52.186;5.598;2024-01-16T02:46:35;3.30;;;0.93;;
18929;SDS011;43305;52.186;5.598;2024-01-16T02:49:04;5.90;;;1.10;;
18929;SDS011;43305;52.186;5.598;2024-01-16T02:51:32;7.43;;;1.00;;
18929;SDS011;43305;52.186;5.598;2024-01-16T02:54:02;3.13;;;0.60;;
18929;SDS011;43305;52.186;5.598;2024-01-16T02:56:33;4.95;;;0.73;;
18929;SDS011;43305;52.186;5.598;2024-01-16T02:59:01;3.78;;;0.75;;
18929;SDS011;43305;52.186;5.598;2024-01-16T03:01:28;4.78;;;1.25;;
18929;SDS011;43305;52.186;5.598;2024-01-16T03:03:55;4.82;;;0.98;;
18929;SDS011;43305;52.186;5.598;2024-01-16T03:06:22;5.32;;;1.00;;
18929;SDS011;43305;52.186;5.598;2024-01-16T03:08:49;4.85;;;0.93;;
18929;SDS011;43305;52.186;5.598;2024-01-16T03:11:16;6.43;;;1.23;;
18929;SDS011;43305;52.186;5.598;2024-01-16T03:13:43;5.28;;;1.00;;
18929;SDS011;43305;52.186;5.598;2024-01-16T03:16:11;7.30;;;1.27;;
18929;SDS011;43305;52.186;5.598;2024-01-16T03:18:38;6.32;;;1.13;;
18929;SDS011;43305;52.186;5.598;2024-01-16T03:21:06;6.70;;;1.20;;
18929;SDS011;43305;52.186;5.598;2024-01-16T03:23:33;5.80;;;1.27;;
18929;SDS011;43305;52.186;5.598;2024-01-16T03:26:00;6.78;;;1.52;;
18929;SDS011;43305;52.186;5.598;2024-01-16T03:28:28;6.72;;;1.52;;
18929;SDS011;43305;52.186;5.598;2024-01-16T03:30:55;6.65;;;1.30;;
18929;SDS011;43305;52.186;5.598;2024-01-16T03:33:23;6.72;;;1.20;;
18929;SDS011;43305;52.186;5.598;2024-01-16T03:35:50;6.38;;;1.30;;
18929;SDS011;43305;52.186;5.598;2024-01-16T03:38:17;6.75;;;1.33;;
18929;SDS011;43305;52.186;5.598;2024-01-16T03:40:44;9.57;;;1.20;;
18929;SDS011;43305;52.186;5.598;2024-01-16T03:43:11;8.05;;;1.30;;
18929;SDS011;43305;52.186;5.598;2024-01-16T03:45:38;11.15;;;1.42;;
18929;SDS011;43305;52.186;5.598;2024-01-16T03:48:05;5.78;;;0.93;;
18929;SDS011;43305;52.186;5.598;2024-01-16T03:50:33;7.38;;;1.23;;
18929;SDS011;43305;52.186;5.598;2024-01-16T03:53:01;5.82;;;0.80;;
18929;SDS011;43305;52.186;5.598;2024-01-16T03:55:29;4.35;;;0.98;;
18929;SDS011;43305;52.186;5.598;2024-01-16T03:57:56;9.30;;;0.77;;
18929;SDS011;43305;52.186;5.598;2024-01-16T04:00:23;6.55;;;1.00;;
18929;SDS011;43305;52.186;5.598;2024-01-16T04:02:50;6.80;;;0.50;;
18929;SDS011;43305;52.186;5.598;2024-01-16T04:05:17;7.00;;;0.80;;
18929;SDS011;43305;52.186;5.598;2024-01-16T04:07:45;7.60;;;0.50;;
18929;SDS011;43305;52.186;5.598;2024-01-16T04:10:12;8.38;;;0.88;;
18929;SDS011;43305;52.186;5.598;2024-01-16T04:12:39;3.85;;;0.70;;
18929;SDS011;43305;52.186;5.598;2024-01-16T04:15:06;6.28;;;0.68;;
18929;SDS011;43305;52.186;5.598;2024-01-16T04:17:34;5.05;;;0.80;;
18929;SDS011;43305;52.186;5.598;2024-01-16T04:20:01;5.30;;;0.68;;
18929;SDS011;43305;52.186;5.598;2024-01-16T04:22:28;4.55;;;1.30;;
18929;SDS011;43305;52.186;5.598;2024-01-16T04:24:56;7.82;;;1.05;;
18929;SDS011;43305;52.186;5.598;2024-01-16T04:27:23;5.28;;;0.93;;
18929;SDS011;43305;52.186;5.598;2024-01-16T04:29:50;4.05;;;1.00;;
18929;SDS011;43305;52.186;5.598;2024-01-16T04:32:18;8.63;;;1.20;;
18929;SDS011;43305;52.186;5.598;2024-01-16T04:34:45;3.72;;;1.10;;
18929;SDS011;43305;52.186;5.598;2024-01-16T04:37:12;4.78;;;1.20;;
18929;SDS011;43305;52.186;5.598;2024-01-16T04:39:38;5.85;;;1.35;;
18929;SDS011;43305;52.186;5.598;2024-01-16T04:42:06;4.75;;;1.20;;
18929;SDS011;43305;52.186;5.598;2024-01-16T04:44:34;2.90;;;1.00;;
18929;SDS011;43305;52.186;5.598;2024-01-16T04:47:01;5.38;;;1.30;;
18929;SDS011;43305;52.186;5.598;2024-01-16T04:49:30;5.90;;;1.27;;
18929;SDS011;43305;52.186;5.598;2024-01-16T04:51:57;7.65;;;1.02;;
18929;SDS011;43305;52.186;5.598;2024-01-16T04:54:24;2.90;;;1.13;;
18929;SDS011;43305;52.186;5.598;2024-01-16T04:56:51;5.60;;;1.20;;
18929;SDS011;43305;52.186;5.598;2024-01-16T04:59:19;4.53;;;1.58;;
18929;SDS011;43305;52.186;5.598;2024-01-16T05:01:46;4.97;;;1.40;;
18929;SDS011;43305;52.186;5.598;2024-01-16T05:04:12;5.68;;;1.27;;
18929;SDS011;43305;52.186;5.598;2024-01-16T05:06:39;6.43;;;1.30;;
18929;SDS011;43305;52.186;5.598;2024-01-16T05:09:06;7.78;;;1.33;;
18929;SDS011;43305;52.186;5.598;2024-01-16T05:11:34;6.35;;;1.50;;
18929;SDS011;43305;52.186;5.598;2024-01-16T05:14:01;7.82;;;1.50;;
18929;SDS011;43305;52.186;5.598;2024-01-16T05:16:31;5.78;;;1.30;;
18929;SDS011;43305;52.186;5.598;2024-01-16T05:19:01;7.60;;;1.10;;
18929;SDS011;43305;52.186;5.598;2024-01-16T05:21:28;5.18;;;1.05;;
18929;SDS011;43305;52.186;5.598;2024-01-16T05:23:55;4.57;;;1.35;;
18929;SDS011;43305;52.186;5.598;2024-01-16T05:26:22;5.45;;;1.52;;
18929;SDS011;43305;52.186;5.598;2024-01-16T05:28:49;4.88;;;1.50;;
18929;SDS011;43305;52.186;5.598;2024-01-16T05:31:16;9.07;;;1.67;;
18929;SDS011;43305;52.186;5.598;2024-01-16T05:33:46;7.30;;;1.88;;
18929;SDS011;43305;52.186;5.598;2024-01-16T05:36:12;5.75;;;2.05;;
18929;SDS011;43305;52.186;5.598;2024-01-16T05:38:39;7.82;;;2.50;;
18929;SDS011;43305;52.186;5.598;2024-01-16T05:41:06;7.38;;;2.70;;
18929;SDS011;43305;52.186;5.598;2024-01-16T05:43:33;8.65;;;2.63;;
18929;SDS011;43305;52.186;5.598;2024-01-16T05:46:00;9.57;;;2.75;;
18929;SDS011;43305;52.186;5.598;2024-01-16T05:48:27;9.68;;;2.80;;
18929;SDS011;43305;52.186;5.598;2024-01-16T05:50:55;7.82;;;2.85;;
18929;SDS011;43305;52.186;5.598;2024-01-16T05:53:22;11.05;;;3.08;;
18929;SDS011;43305;52.186;5.598;2024-01-16T05:55:49;10.48;;;3.17;;
18929;SDS011;43305;52.186;5.598;2024-01-16T05:58:16;8.38;;;2.90;;
18929;SDS011;43305;52.186;5.598;2024-01-16T06:00:43;8.68;;;3.13;;
18929;SDS011;43305;52.186;5.598;2024-01-16T06:03:10;9.50;;;2.80;;
18929;SDS011;43305;52.186;5.598;2024-01-16T06:05:37;7.03;;;3.10;;
18929;SDS011;43305;52.186;5.598;2024-01-16T06:08:05;10.60;;;3.30;;
18929;SDS011;43305;52.186;5.598;2024-01-16T06:10:33;7.43;;;3.00;;
18929;SDS011;43305;52.186;5.598;2024-01-16T06:13:00;9.27;;;3.33;;
18929;SDS011;43305;52.186;5.598;2024-01-16T06:15:27;7.65;;;3.28;;
18929;SDS011;43305;52.186;5.598;2024-01-16T06:17:53;8.23;;;3.45;;
18929;SDS011;43305;52.186;5.598;2024-01-16T06:20:20;10.68;;;3.40;;
18929;SDS011;43305;52.186;5.598;2024-01-16T06:22:49;8.45;;;3.47;;
18929;SDS011;43305;52.186;5.598;2024-01-16T06:25:17;12.20;;;3.58;;
18929;SDS011;43305;52.186;5.598;2024-01-16T06:27:44;11.93;;;4.00;;
18929;SDS011;43305;52.186;5.598;2024-01-16T06:30:11;9.48;;;4.03;;
18929;SDS011;43305;52.186;5.598;2024-01-16T06:32:38;13.25;;;4.43;;
18929;SDS011;43305;52.186;5.598;2024-01-16T06:35:05;7.18;;;3.75;;
18929;SDS011;43305;52.186;5.598;2024-01-16T06:37:33;12.13;;;4.32;;
18929;SDS011;43305;52.186;5.598;2024-01-16T06:40:00;10.70;;;4.47;;
18929;SDS011;43305;52.186;5.598;2024-01-16T06:42:29;11.50;;;4.10;;
18929;SDS011;43305;52.186;5.598;2024-01-16T06:44:56;11.77;;;4.40;;
18929;SDS011;43305;52.186;5.598;2024-01-16T06:47:23;9.95;;;4.25;;
18929;SDS011;43305;52.186;5.598;2024-01-16T06:49:50;13.38;;;4.40;;
18929;SDS011;43305;52.186;5.598;2024-01-16T06:52:17;11.57;;;4.22;;
18929;SDS011;43305;52.186;5.598;2024-01-16T06:54:44;12.38;;;4.20;;
18929;SDS011;43305;52.186;5.598;2024-01-16T06:57:10;9.95;;;4.05;;
18929;SDS011;43305;52.186;5.598;2024-01-16T06:59:39;15.18;;;4.28;;
18929;SDS011;43305;52.186;5.598;2024-01-16T07:02:06;12.25;;;4.00;;
18929;SDS011;43305;52.186;5.598;2024-01-16T07:04:33;9.23;;;3.38;;
18929;SDS011;43305;52.186;5.598;2024-01-16T07:07:00;9.15;;;3.15;;
18929;SDS011;43305;52.186;5.598;2024-01-16T07:09:28;7.45;;;2.70;;
18929;SDS011;43305;52.186;5.598;2024-01-16T07:11:55;6.45;;;2.33;;
18929;SDS011;43305;52.186;5.598;2024-01-16T07:14:22;9.02;;;2.42;;
18929;SDS011;43305;52.186;5.598;2024-01-16T07:16:50;8.70;;;2.28;;
18929;SDS011;43305;52.186;5.598;2024-01-16T07:19:17;9.02;;;2.67;;
18929;SDS011;43305;52.186;5.598;2024-01-16T07:21:43;8.40;;;2.20;;
18929;SDS011;43305;52.186;5.598;2024-01-16T07:24:10;7.45;;;2.50;;
18929;SDS011;43305;52.186;5.598;2024-01-16T07:26:38;10.50;;;2.65;;
18929;SDS011;43305;52.186;5.598;2024-01-16T07:29:06;7.05;;;2.60;;
18929;SDS011;43305;52.186;5.598;2024-01-16T07:31:34;12.27;;;2.58;;
18929;SDS011;43305;52.186;5.598;2024-01-16T07:34:02;8.57;;;2.97;;
18929;SDS011;43305;52.186;5.598;2024-01-16T07:36:32;9.40;;;3.47;;
18929;SDS011;43305;52.186;5.598;2024-01-16T07:39:01;7.78;;;3.20;;
18929;SDS011;43305;52.186;5.598;2024-01-16T07:41:31;10.35;;;3.90;;
18929;SDS011;43305;52.186;5.598;2024-01-16T07:44:01;11.18;;;4.68;;
18929;SDS011;43305;52.186;5.598;2024-01-16T07:46:28;11.75;;;5.25;;
18929;SDS011;43305;52.186;5.598;2024-01-16T07:48:55;14.05;;;5.55;;
18929;SDS011;43305;52.186;5.598;2024-01-16T07:51:23;13.75;;;6.05;;
18929;SDS011;43305;52.186;5.598;2024-01-16T07:53:51;17.15;;;7.47;;
18929;SDS011;43305;52.186;5.598;2024-01-16T07:56:30;19.45;;;8.75;;
18929;SDS011;43305;52.186;5.598;2024-01-16T07:58:57;23.50;;;8.73;;
18929;SDS011;43305;52.186;5.598;2024-01-16T08:01:23;24.45;;;8.98;;
18929;SDS011;43305;52.186;5.598;2024-01-16T08:03:50;18.77;;;9.02;;
18929;SDS011;43305;52.186;5.598;2024-01-16T08:06:17;21.00;;;9.65;;
18929;SDS011;43305;52.186;5.598;2024-01-16T08:08:45;20.40;;;9.05;;
18929;SDS011;43305;52.186;5.598;2024-01-16T08:11:12;22.35;;;9.85;;
18929;SDS011;43305;52.186;5.598;2024-01-16T08:13:39;21.65;;;9.27;;
18929;SDS011;43305;52.186;5.598;2024-01-16T08:16:06;24.10;;;10.07;;
18929;SDS011;43305;52.186;5.598;2024-01-16T08:18:33;19.73;;;9.63;;
18929;SDS011;43305;52.186;5.598;2024-01-16T08:21:00;24.00;;;10.02;;
18929;SDS011;43305;52.186;5.598;2024-01-16T08:23:27;19.63;;;9.40;;
18929;SDS011;43305;52.186;5.598;2024-01-16T08:25:55;21.48;;;9.10;;
18929;SDS011;43305;52.186;5.598;2024-01-16T08:28:22;19.15;;;9.18;;
18929;SDS011;43305;52.186;5.598;2024-01-16T08:30:51;21.70;;;10.00;;
18929;SDS011;43305;52.186;5.598;2024-01-16T08:33:18;15.88;;;9.07;;
18929;SDS011;43305;52.186;5.598;2024-01-16T08:35:45;17.17;;;9.02;;
18929;SDS011;43305;52.186;5.598;2024-01-16T08:38:12;25.20;;;9.50;;
18929;SDS011;43305;52.186;5.598;2024-01-16T08:40:39;24.00;;;9.25;;
18929;SDS011;43305;52.186;5.598;2024-01-16T08:43:07;18.17;;;8.50;;
18929;SDS011;43305;52.186;5.598;2024-01-16T08:45:34;21.05;;;8.40;;
18929;SDS011;43305;52.186;5.598;2024-01-16T08:48:01;24.10;;;8.18;;
18929;SDS011;43305;52.186;5.598;2024-01-16T08:50:28;26.38;;;9.43;;
18929;SDS011;43305;52.186;5.598;2024-01-16T08:52:55;22.20;;;8.55;;
18929;SDS011;43305;52.186;5.598;2024-01-16T08:55:22;25.25;;;9.23;;
18929;SDS011;43305;52.186;5.598;2024-01-16T08:57:49;27.27;;;9.13;;
18929;SDS011;43305;52.186;5.598;2024-01-16T09:00:17;23.23;;;8.52;;
18929;SDS011;43305;52.186;5.598;2024-01-16T09:02:44;24.08;;;8.95;;
18929;SDS011;43305;52.186;5.598;2024-01-16T09:05:11;25.30;;;9.05;;
18929;SDS011;43305;52.186;5.598;2024-01-16T09:07:39;14.57;;;7.65;;
18929;SDS011;43305;52.186;5.598;2024-01-16T09:10:07;23.25;;;7.55;;
18929;SDS011;43305;52.186;5.598;2024-01-16T09:12:34;22.02;;;7.70;;
18929;SDS011;43305;52.186;5.598;2024-01-16T09:15:01;16.25;;;6.90;;
18929;SDS011;43305;52.186;5.598;2024-01-16T09:17:31;17.52;;;7.35;;
18929;SDS011;43305;52.186;5.598;2024-01-16T09:19:58;18.77;;;7.22;;
18929;SDS011;43305;52.186;5.598;2024-01-16T09:22:25;19.88;;;6.93;;
18929;SDS011;43305;52.186;5.598;2024-01-16T09:24:52;20.60;;;6.68;;
18929;SDS011;43305;52.186;5.598;2024-01-16T09:27:19;18.13;;;6.07;;
18929;SDS011;43305;52.186;5.598;2024-01-16T09:29:46;16.15;;;5.75;;
18929;SDS011;43305;52.186;5.598;2024-01-16T09:32:14;13.70;;;5.32;;
18929;SDS011;43305;52.186;5.598;2024-01-16T09:34:42;17.67;;;6.15;;
18929;SDS011;43305;52.186;5.598;2024-01-16T09:37:09;14.68;;;5.20;;
18929;SDS011;43305;52.186;5.598;2024-01-16T09:39:39;18.40;;;5.25;;
18929;SDS011;43305;52.186;5.598;2024-01-16T09:42:06;12.80;;;4.90;;
18929;SDS011;43305;52.186;5.598;2024-01-16T09:44:33;14.77;;;4.75;;
18929;SDS011;43305;52.186;5.598;2024-01-16T09:47:01;13.70;;;4.53;;
18929;SDS011;43305;52.186;5.598;2024-01-16T09:49:29;9.57;;;4.68;;
18929;SDS011;43305;52.186;5.598;2024-01-16T09:51:57;12.85;;;4.15;;
18929;SDS011;43305;52.186;5.598;2024-01-16T09:54:26;16.58;;;4.40;;
18929;SDS011;43305;52.186;5.598;2024-01-16T09:56:53;14.35;;;3.75;;
18929;SDS011;43305;52.186;5.598;2024-01-16T09:59:23;10.20;;;3.80;;
18929;SDS011;43305;52.186;5.598;2024-01-16T10:01:52;12.70;;;3.15;;
18929;SDS011;43305;52.186;5.598;2024-01-16T10:04:21;12.30;;;3.10;;
18929;SDS011;43305;52.186;5.598;2024-01-16T10:06:48;11.48;;;3.38;;
18929;SDS011;43305;52.186;5.598;2024-01-16T10:09:18;10.93;;;3.30;;
18929;SDS011;43305;52.186;5.598;2024-01-16T10:11:45;7.95;;;3.00;;
18929;SDS011;43305;52.186;5.598;2024-01-16T10:14:13;7.97;;;2.95;;
18929;SDS011;43305;52.186;5.598;2024-01-16T10:16:54;11.65;;;2.80;;
18929;SDS011;43305;52.186;5.598;2024-01-16T10:19:23;12.25;;;2.92;;
18929;SDS011;43305;52.186;5.598;2024-01-16T10:21:50;5.22;;;2.30;;
18929;SDS011;43305;52.186;5.598;2024-01-16T10:24:19;8.18;;;2.67;;
18929;SDS011;43305;52.186;5.598;2024-01-16T10:26:45;10.13;;;2.95;;
18929;SDS011;43305;52.186;5.598;2024-01-16T10:29:25;8.98;;;2.95;;
18929;SDS011;43305;52.186;5.598;2024-01-16T10:31:52;8.68;;;2.80;;
18929;SDS011;43305;52.186;5.598;2024-01-16T10:34:19;12.00;;;3.05;;
18929;SDS011;43305;52.186;5.598;2024-01-16T10:36:48;10.32;;;3.20;;
18929;SDS011;43305;52.186;5.598;2024-01-16T10:39:16;15.73;;;3.72;;
18929;SDS011;43305;52.186;5.598;2024-01-16T10:41:48;10.35;;;2.83;;
18929;SDS011;43305;52.186;5.598;2024-01-16T10:44:20;8.82;;;3.10;;
18929;SDS011;43305;52.186;5.598;2024-01-16T10:46:47;7.65;;;2.25;;
18929;SDS011;43305;52.186;5.598;2024-01-16T10:49:14;11.25;;;2.53;;
18929;SDS011;43305;52.186;5.598;2024-01-16T10:51:42;11.93;;;2.75;;
18929;SDS011;43305;52.186;5.598;2024-01-16T10:54:11;6.25;;;2.63;;
18929;SDS011;43305;52.186;5.598;2024-01-16T10:56:42;7.45;;;2.33;;
18929;SDS011;43305;52.186;5.598;2024-01-16T10:59:15;11.05;;;2.80;;
18929;SDS011;43305;52.186;5.598;2024-01-16T11:01:45;12.50;;;2.88;;
18929;SDS011;43305;52.186;5.598;2024-01-16T11:04:17;13.02;;;2.63;;
18929;SDS011;43305;52.186;5.598;2024-01-16T11:06:46;6.13;;;2.47;;
18929;SDS011;43305;52.186;5.598;2024-01-16T11:09:13;7.70;;;2.38;;
18929;SDS011;43305;52.186;5.598;2024-01-16T11:11:41;11.68;;;2.40;;
18929;SDS011;43305;52.186;5.598;2024-01-16T11:14:10;9.73;;;2.45;;
18929;SDS011;43305;52.186;5.598;2024-01-16T11:16:39;9.27;;;2.17;;
18929;SDS011;43305;52.186;5.598;2024-01-16T11:19:07;6.82;;;2.47;;
18929;SDS011;43305;52.186;5.598;2024-01-16T11:21:36;11.32;;;2.70;;
18929;SDS011;43305;52.186;5.598;2024-01-16T11:24:04;10.15;;;2.70;;
18929;SDS011;43305;52.186;5.598;2024-01-16T11:26:32;7.45;;;2.53;;
18929;SDS011;43305;52.186;5.598;2024-01-16T11:32:04;8.82;;;2.20;;
18929;SDS011;43305;52.186;5.598;2024-01-16T11:37:24;13.35;;;2.88;;
18929;SDS011;43305;52.186;5.598;2024-01-16T11:39:54;7.55;;;2.13;;
18929;SDS011;43305;52.186;5.598;2024-01-16T11:42:47;7.38;;;2.10;;
18929;SDS011;43305;52.186;5.598;2024-01-16T11:48:18;5.63;;;1.70;;
18929;SDS011;43305;52.186;5.598;2024-01-16T11:50:45;7.57;;;1.80;;
18929;SDS011;43305;52.186;5.598;2024-01-16T11:53:32;10.18;;;2.33;;
18929;SDS011;43305;52.186;5.598;2024-01-16T11:56:13;8.07;;;1.90;;
18929;SDS011;43305;52.186;5.598;2024-01-16T11:58:57;7.97;;;2.08;;
18929;SDS011;43305;52.186;5.598;2024-01-16T12:01:36;7.82;;;2.17;;
18929;SDS011;43305;52.186;5.598;2024-01-16T12:04:05;7.20;;;1.80;;
18929;SDS011;43305;52.186;5.598;2024-01-16T12:06:36;12.70;;;1.88;;
18929;SDS011;43305;52.186;5.598;2024-01-16T12:09:12;6.82;;;1.95;;
18929;SDS011;43305;52.186;5.598;2024-01-16T12:11:39;7.32;;;1.80;;
18929;SDS011;43305;52.186;5.598;2024-01-16T12:14:08;8.80;;;2.30;;
18929;SDS011;43305;52.186;5.598;2024-01-16T12:16:35;7.93;;;2.50;;
18929;SDS011;43305;52.186;5.598;2024-01-16T12:19:07;4.57;;;1.83;;
18929;SDS011;43305;52.186;5.598;2024-01-16T12:21:35;9.25;;;1.98;;
18929;SDS011;43305;52.186;5.598;2024-01-16T12:24:05;5.63;;;1.70;;
18929;SDS011;43305;52.186;5.598;2024-01-16T12:26:32;7.18;;;1.88;;
18929;SDS011;43305;52.186;5.598;2024-01-16T12:29:03;5.70;;;2.03;;
18929;SDS011;43305;52.186;5.598;2024-01-16T12:31:31;8.57;;;2.10;;
18929;SDS011;43305;52.186;5.598;2024-01-16T12:34:08;5.32;;;1.90;;
18929;SDS011;43305;52.186;5.598;2024-01-16T12:36:36;6.28;;;1.90;;
18929;SDS011;43305;52.186;5.598;2024-01-16T12:39:03;4.63;;;1.80;;
18929;SDS011;43305;52.186;5.598;2024-01-16T12:41:32;8.25;;;2.10;;
18929;SDS011;43305;52.186;5.598;2024-01-16T12:44:03;10.02;;;2.13;;
18929;SDS011;43305;52.186;5.598;2024-01-16T12:46:30;7.15;;;1.73;;
18929;SDS011;43305;52.186;5.598;2024-01-16T12:49:00;7.03;;;1.70;;
18929;SDS011;43305;52.186;5.598;2024-01-16T12:51:30;7.45;;;1.92;;
18929;SDS011;43305;52.186;5.598;2024-01-16T12:54:09;6.82;;;1.80;;
18929;SDS011;43305;52.186;5.598;2024-01-16T12:56:37;8.50;;;1.63;;
18929;SDS011;43305;52.186;5.598;2024-01-16T12:59:08;7.38;;;2.08;;
18929;SDS011;43305;52.186;5.598;2024-01-16T13:01:36;6.60;;;1.90;;
18929;SDS011;43305;52.186;5.598;2024-01-16T13:04:07;9.50;;;1.90;;
18929;SDS011;43305;52.186;5.598;2024-01-16T13:06:35;10.18;;;2.22;;
18929;SDS011;43305;52.186;5.598;2024-01-16T13:09:06;6.20;;;1.95;;
18929;SDS011;43305;52.186;5.598;2024-01-16T13:11:48;6.95;;;1.92;;
18929;SDS011;43305;52.186;5.598;2024-01-16T13:14:16;7.20;;;2.15;;
18929;SDS011;43305;52.186;5.598;2024-01-16T13:16:43;7.72;;;2.30;;
18929;SDS011;43305;52.186;5.598;2024-01-16T13:19:10;8.48;;;2.58;;
18929;SDS011;43305;52.186;5.598;2024-01-16T13:21:38;6.05;;;2.10;;
18929;SDS011;43305;52.186;5.598;2024-01-16T13:24:06;8.43;;;2.50;;
18929;SDS011;43305;52.186;5.598;2024-01-16T13:26:33;9.57;;;2.60;;
18929;SDS011;43305;52.186;5.598;2024-01-16T13:29:01;7.93;;;2.53;;
18929;SDS011;43305;52.186;5.598;2024-01-16T13:31:28;8.15;;;2.45;;
18929;SDS011;43305;52.186;5.598;2024-01-16T13:33:55;8.23;;;2.60;;
18929;SDS011;43305;52.186;5.598;2024-01-16T13:36:22;7.82;;;2.42;;
18929;SDS011;43305;52.186;5.598;2024-01-16T13:38:51;7.60;;;2.65;;
18929;SDS011;43305;52.186;5.598;2024-01-16T13:41:18;11.30;;;2.42;;
18929;SDS011;43305;52.186;5.598;2024-01-16T13:43:46;10.35;;;2.60;;
18929;SDS011;43305;52.186;5.598;2024-01-16T13:46:14;8.25;;;2.50;;
18929;SDS011;43305;52.186;5.598;2024-01-16T13:48:42;7.10;;;2.03;;
18929;SDS011;43305;52.186;5.598;2024-01-16T13:51:10;7.55;;;2.30;;
18929;SDS011;43305;52.186;5.598;2024-01-16T13:53:37;7.90;;;2.58;;
18929;SDS011;43305;52.186;5.598;2024-01-16T13:56:05;10.02;;;3.20;;
18929;SDS011;43305;52.186;5.598;2024-01-16T13:58:33;11.43;;;3.33;;
18929;SDS011;43305;52.186;5.598;2024-01-16T14:01:00;8.30;;;2.92;;
18929;SDS011;43305;52.186;5.598;2024-01-16T14:03:29;7.05;;;2.55;;
18929;SDS011;43305;52.186;5.598;2024-01-16T14:05:56;6.03;;;2.75;;
18929;SDS011;43305;52.186;5.598;2024-01-16T14:08:22;8.50;;;2.70;;
18929;SDS011;43305;52.186;5.598;2024-01-16T14:10:49;10.05;;;2.58;;
18929;SDS011;43305;52.186;5.598;2024-01-16T14:13:18;7.03;;;2.53;;
18929;SDS011;43305;52.186;5.598;2024-01-16T14:15:45;8.70;;;2.88;;
18929;SDS011;43305;52.186;5.598;2024-01-16T14:18:12;6.47;;;2.72;;
18929;SDS011;43305;52.186;5.598;2024-01-16T14:20:39;11.27;;;2.80;;
18929;SDS011;43305;52.186;5.598;2024-01-16T14:23:05;6.38;;;2.22;;
18929;SDS011;43305;52.186;5.598;2024-01-16T14:25:33;11.52;;;2.35;;
18929;SDS011;43305;52.186;5.598;2024-01-16T14:28:00;7.13;;;2.65;;
18929;SDS011;43305;52.186;5.598;2024-01-16T14:30:30;6.95;;;2.22;;
18929;SDS011;43305;52.186;5.598;2024-01-16T14:32:58;7.38;;;2.38;;
18929;SDS011;43305;52.186;5.598;2024-01-16T14:35:26;4.97;;;2.05;;
18929;SDS011;43305;52.186;5.598;2024-01-16T14:37:53;5.43;;;2.17;;
18929;SDS011;43305;52.186;5.598;2024-01-16T14:40:20;6.70;;;2.20;;
18929;SDS011;43305;52.186;5.598;2024-01-16T14:42:50;5.15;;;2.25;;
18929;SDS011;43305;52.186;5.598;2024-01-16T14:45:18;8.30;;;2.20;;
18929;SDS011;43305;52.186;5.598;2024-01-16T14:47:47;6.97;;;2.20;;
18929;SDS011;43305;52.186;5.598;2024-01-16T14:50:15;6.63;;;2.35;;
18929;SDS011;43305;52.186;5.598;2024-01-16T14:52:43;5.32;;;2.75;;
18929;SDS011;43305;52.186;5.598;2024-01-16T14:55:10;11.98;;;2.50;;
18929;SDS011;43305;52.186;5.598;2024-01-16T14:57:38;10.07;;;2.15;;